createdAt,value
2023-02-15T00:02:57.640Z,27.00
2023-02-15T00:06:01.232Z,29.75
2023-02-15T00:09:05.702Z,29.00
2023-02-15T00:12:09.093Z,31.50
2023-02-15T00:15:14.125Z,28.00
2023-02-15T00:18:17.354Z,27.75
2023-02-15T00:21:20.989Z,30.00
2023-02-15T00:24:24.435Z,30.40
2023-02-15T00:27:27.658Z,37.50
2023-02-15T00:30:33.240Z,31.50
2023-02-15T00:33:38.376Z,37.25
2023-02-15T00:36:41.990Z,35.00
2023-02-15T00:39:45.292Z,33.40
2023-02-15T00:42:48.582Z,29.50
2023-02-15T00:45:53.721Z,28.75
2023-02-15T00:48:56.971Z,34.40
2023-02-15T00:52:00.296Z,30.00
2023-02-15T00:55:04.419Z,32.50
2023-02-15T00:58:07.754Z,31.80
2023-02-15T01:01:14.268Z,29.00
2023-02-15T01:04:17.695Z,35.50
2023-02-15T01:07:21.070Z,28.60
2023-02-15T01:10:25.048Z,34.40
2023-02-15T01:13:28.417Z,31.25
2023-02-15T01:16:33.354Z,37.40
2023-02-15T01:19:36.627Z,27.20
2023-02-15T01:22:40.163Z,38.50
2023-02-15T01:25:43.746Z,30.60
2023-02-15T01:28:48.596Z,30.60
2023-02-15T01:31:54.820Z,32.00
2023-02-15T01:34:58.089Z,34.00
2023-02-15T01:38:01.613Z,35.00
2023-02-15T01:41:25.055Z,32.40
2023-02-15T01:44:59.107Z,35.50
2023-02-15T01:48:07.395Z,32.00
2023-02-15T01:51:11.327Z,35.00
2023-02-15T01:54:26.265Z,35.00
2023-02-15T01:57:30.737Z,31.50
2023-02-15T02:00:35.212Z,31.33
2023-02-15T02:03:48.196Z,27.40
2023-02-15T02:06:53.497Z,28.60
2023-02-15T02:09:57.424Z,30.25
2023-02-15T02:13:07.182Z,30.50
2023-02-15T02:16:16.931Z,34.00
2023-02-15T02:20:03.023Z,29.75
2023-02-15T02:23:32.100Z,28.80
2023-02-15T02:27:06.955Z,33.00
2023-02-15T02:30:37.554Z,29.20
2023-02-15T02:33:56.305Z,27.60
2023-02-15T02:37:06.091Z,26.33
2023-02-15T02:40:19.123Z,33.00
2023-02-15T02:43:32.270Z,29.00
2023-02-15T02:46:41.753Z,29.75
2023-02-15T02:49:47.192Z,32.40
2023-02-15T02:52:52.111Z,30.40
2023-02-15T02:55:58.751Z,30.00
2023-02-15T02:59:08.319Z,30.00
2023-02-15T03:02:18.801Z,29.00
2023-02-15T03:05:28.874Z,31.40
2023-02-15T03:08:37.495Z,30.80
2023-02-15T03:11:40.871Z,31.60
2023-02-15T03:14:47.465Z,32.50
2023-02-15T03:17:57.986Z,28.00
2023-02-15T03:21:05.492Z,32.00
2023-02-15T03:24:16.099Z,29.60
2023-02-15T03:27:24.712Z,32.40
2023-02-15T03:30:31.841Z,28.60
2023-02-15T03:33:42.080Z,32.25
2023-02-15T03:36:54.344Z,34.00
2023-02-15T03:40:26.096Z,35.60
2023-02-15T03:43:35.075Z,36.75
2023-02-15T03:46:46.382Z,35.00
2023-02-15T03:49:55.894Z,35.40
2023-02-15T03:53:02.856Z,34.00
2023-02-15T03:56:06.203Z,31.50
2023-02-15T03:59:27.682Z,32.60
2023-02-15T04:02:38.276Z,28.20
2023-02-15T04:05:41.762Z,35.50
2023-02-15T04:09:04.446Z,36.80
2023-02-15T04:12:07.885Z,29.80
2023-02-15T04:15:31.717Z,31.00
2023-02-15T04:18:54.599Z,33.00
2023-02-15T04:22:16.087Z,31.80
2023-02-15T04:25:21.067Z,31.40
2023-02-15T04:28:24.403Z,31.40
2023-02-15T04:31:27.686Z,29.00
2023-02-15T04:34:31.240Z,28.00
2023-02-15T04:37:34.967Z,24.20
2023-02-15T04:40:39.637Z,38.40
2023-02-15T04:43:42.903Z,31.50
2023-02-15T04:46:46.151Z,31.60
2023-02-15T04:49:49.476Z,35.60
2023-02-15T04:52:52.740Z,30.60
2023-02-15T04:55:57.387Z,31.60
2023-02-15T04:59:00.657Z,29.20
2023-02-15T05:02:04.470Z,34.20
2023-02-15T05:05:08.476Z,31.50
2023-02-15T05:08:11.781Z,31.00
2023-02-15T05:11:16.587Z,28.00
2023-02-15T05:14:20.059Z,27.80
2023-02-15T05:17:23.342Z,30.80
2023-02-15T05:20:26.644Z,27.80
2023-02-15T05:23:29.923Z,31.00
2023-02-15T05:26:52.211Z,30.00
2023-02-15T05:29:55.564Z,31.50
2023-02-15T05:32:58.900Z,32.00
2023-02-15T05:36:02.935Z,28.60
2023-02-15T05:39:07.012Z,29.80
2023-02-15T05:42:11.890Z,29.60
2023-02-15T05:45:15.210Z,30.50
2023-02-15T05:48:19.327Z,29.80
2023-02-15T05:51:22.621Z,26.50
2023-02-15T05:54:26.177Z,26.80
2023-02-15T05:57:30.933Z,28.00
2023-02-15T06:00:36.721Z,29.20
2023-02-15T06:03:41.311Z,29.40
2023-02-15T06:06:44.863Z,27.80
2023-02-15T06:09:48.081Z,33.60
2023-02-15T06:12:53.011Z,32.00
2023-02-15T06:15:56.234Z,30.00
2023-02-15T06:19:00.214Z,30.80
2023-02-15T06:22:03.602Z,27.50
2023-02-15T06:25:11.026Z,28.25
2023-02-15T06:28:15.930Z,30.80
2023-02-15T06:31:19.459Z,33.40
2023-02-15T06:34:22.786Z,29.40
2023-02-15T06:37:26.230Z,35.60
2023-02-15T06:40:29.484Z,34.00
2023-02-15T06:43:35.535Z,29.00
2023-02-15T06:46:38.822Z,31.60
2023-02-15T06:49:42.200Z,33.00
2023-02-15T06:52:45.439Z,33.60
2023-02-15T06:55:48.704Z,33.00
2023-02-15T06:58:53.819Z,32.50
2023-02-15T07:01:57.220Z,31.60
2023-02-15T07:05:00.629Z,32.80
2023-02-15T07:08:04.385Z,26.80
2023-02-15T07:11:26.317Z,38.00
2023-02-15T07:14:31.001Z,36.25
2023-02-15T07:17:36.533Z,40.00
2023-02-15T07:20:42.724Z,32.00
2023-02-15T07:23:45.965Z,32.20
2023-02-15T07:26:49.414Z,26.75
2023-02-15T07:29:54.085Z,28.00
2023-02-15T07:33:15.508Z,24.75
2023-02-15T07:36:18.719Z,29.00
2023-02-15T07:39:22.350Z,25.40
2023-02-15T07:42:25.562Z,23.00
2023-02-15T07:45:30.717Z,27.00
2023-02-15T07:48:34.839Z,26.50
2023-02-15T07:51:38.133Z,24.00
2023-02-15T07:54:41.384Z,22.00
2023-02-15T07:57:46.205Z,19.60
2023-02-15T08:01:02.197Z,27.50
2023-02-15T08:04:06.751Z,26.60
2023-02-15T08:07:10.080Z,23.40
2023-02-15T08:10:33.513Z,26.40
2023-02-15T08:13:54.578Z,23.00
2023-02-15T08:17:03.722Z,24.25
2023-02-15T08:20:08.455Z,24.25
2023-02-15T08:23:11.843Z,24.75
2023-02-15T08:26:15.753Z,26.75
2023-02-15T08:29:21.221Z,23.40
2023-02-15T08:32:25.938Z,21.60
2023-02-15T08:35:29.218Z,22.00
2023-02-15T08:38:33.550Z,21.00
2023-02-15T08:41:39.022Z,24.00
2023-02-15T08:44:42.358Z,25.00
2023-02-15T08:47:46.943Z,23.50
2023-02-15T08:50:50.166Z,22.00
2023-02-15T08:53:55.321Z,24.00
2023-02-15T08:56:58.661Z,21.00
2023-02-15T09:00:03.094Z,23.40
2023-02-15T09:03:08.301Z,22.00
2023-02-15T09:06:12.109Z,19.20
2023-02-15T09:09:15.702Z,23.40
2023-02-15T09:12:19.127Z,22.40
2023-02-15T09:15:22.374Z,18.80
2023-02-15T09:18:27.392Z,22.60
2023-02-15T09:21:31.047Z,22.20
2023-02-15T09:24:34.947Z,20.60
2023-02-15T09:27:39.621Z,21.60
2023-02-15T09:30:43.849Z,22.00
2023-02-15T09:33:50.123Z,23.20
2023-02-15T09:36:54.037Z,21.00
2023-02-15T09:39:57.342Z,21.75
2023-02-15T09:43:20.445Z,20.00
2023-02-15T09:46:51.735Z,24.00
2023-02-15T09:50:06.309Z,24.50
2023-02-15T09:53:27.021Z,23.00
2023-02-15T09:56:38.519Z,25.40
2023-02-15T09:59:53.321Z,24.00
2023-02-15T10:03:20.808Z,23.00
2023-02-15T10:06:35.174Z,24.60
2023-02-15T10:09:55.875Z,25.60
2023-02-15T10:13:26.759Z,24.00
2023-02-15T10:16:41.297Z,26.60
2023-02-15T10:19:59.024Z,24.20
2023-02-15T10:23:19.717Z,29.00
2023-02-15T10:26:24.912Z,29.60
2023-02-15T10:29:36.136Z,29.00
2023-02-15T10:32:48.906Z,26.00
2023-02-15T10:36:05.089Z,26.40
2023-02-15T10:39:19.760Z,26.00
2023-02-15T10:42:32.798Z,32.60
2023-02-15T10:45:49.226Z,29.50
2023-02-15T10:49:18.443Z,29.40
2023-02-15T10:52:37.118Z,31.60
2023-02-15T10:55:54.125Z,29.00
2023-02-15T10:59:24.323Z,29.00
2023-02-15T11:02:37.765Z,29.75
2023-02-15T11:05:50.201Z,29.00
2023-02-15T11:08:57.716Z,28.00
2023-02-15T11:12:03.006Z,30.60
2023-02-15T11:15:17.684Z,28.60
2023-02-15T11:18:30.376Z,27.75
2023-02-15T11:21:40.187Z,30.40
2023-02-15T11:24:45.973Z,30.00
2023-02-15T11:27:52.179Z,33.50
2023-02-15T11:30:58.243Z,30.75
2023-02-15T11:34:13.226Z,28.50
2023-02-15T11:37:21.665Z,29.00
2023-02-15T11:40:28.819Z,30.80
2023-02-15T11:43:40.437Z,32.00
2023-02-15T11:46:43.995Z,27.40
2023-02-15T11:49:48.118Z,31.00
2023-02-15T11:52:51.782Z,32.00
2023-02-15T11:55:55.814Z,29.75
2023-02-15T11:59:05.636Z,29.00
2023-02-15T12:02:18.417Z,32.00
2023-02-15T12:05:25.570Z,28.80
2023-02-15T12:08:39.801Z,29.00
2023-02-15T12:11:43.839Z,32.00
2023-02-15T12:14:52.326Z,28.60
2023-02-15T12:17:56.857Z,32.20
2023-02-15T12:21:02.391Z,29.00
2023-02-15T12:24:16.038Z,31.00
2023-02-15T12:27:22.254Z,32.20
2023-02-15T12:30:34.516Z,33.00
2023-02-15T12:33:46.633Z,35.40
2023-02-15T12:36:55.421Z,32.60
2023-02-15T12:40:00.638Z,32.60
2023-02-15T12:43:26.292Z,33.75
2023-02-15T12:46:38.076Z,35.40
2023-02-15T12:49:47.469Z,29.00
2023-02-15T12:52:53.255Z,31.00
2023-02-15T12:55:59.002Z,32.00
2023-02-15T12:59:07.854Z,33.60
2023-02-15T13:02:23.132Z,36.00
2023-02-15T13:05:31.427Z,33.00
2023-02-15T13:08:37.986Z,33.00
2023-02-15T13:11:43.305Z,35.00
2023-02-15T13:14:48.842Z,35.40
2023-02-15T13:17:53.856Z,32.40
2023-02-15T13:20:58.375Z,33.60
2023-02-15T13:24:06.922Z,31.00
2023-02-15T13:27:17.351Z,35.40
2023-02-15T13:30:27.252Z,37.25
2023-02-15T13:33:35.936Z,32.75
2023-02-15T13:36:48.849Z,34.00
2023-02-15T13:39:59.920Z,33.40
2023-02-15T13:43:17.911Z,34.00
2023-02-15T13:46:43.749Z,30.00
2023-02-15T13:50:05.485Z,31.20
2023-02-15T13:53:31.303Z,36.40
2023-02-15T13:56:48.131Z,32.50
2023-02-15T14:00:05.210Z,33.00
2023-02-15T14:04:00.588Z,37.80
2023-02-15T14:07:18.197Z,32.40
2023-02-15T14:10:34.898Z,33.40
2023-02-15T14:14:03.893Z,30.60
2023-02-15T14:17:17.142Z,35.50
2023-02-15T14:20:27.225Z,35.00
2023-02-15T14:23:50.227Z,35.40
2023-02-15T14:27:03.609Z,40.80
2023-02-15T14:30:18.228Z,34.00
2023-02-15T14:33:36.871Z,28.00
2023-02-15T14:36:40.891Z,30.80
2023-02-15T14:40:11.833Z,32.00
2023-02-15T14:43:27.412Z,29.00
2023-02-15T14:46:38.910Z,31.20
2023-02-15T14:49:42.743Z,35.60
2023-02-15T14:53:17.711Z,33.40
2023-02-15T14:56:28.582Z,37.60
2023-02-15T14:59:48.024Z,40.40
2023-02-15T15:02:55.645Z,36.00
2023-02-15T15:06:04.509Z,33.00
2023-02-15T15:09:17.553Z,37.00
2023-02-15T15:12:42.069Z,35.00
2023-02-15T15:15:48.523Z,37.40
2023-02-15T15:18:52.097Z,32.00
2023-02-15T15:21:57.625Z,37.50
2023-02-15T15:25:02.075Z,33.00
2023-02-15T15:28:08.329Z,34.80
2023-02-15T15:31:21.838Z,37.25
2023-02-15T15:35:02.300Z,37.50
2023-02-15T15:38:31.347Z,35.50
2023-02-15T15:41:43.865Z,34.00
2023-02-15T15:45:34.288Z,34.25
2023-02-15T15:48:39.967Z,35.00
2023-02-15T15:51:45.506Z,38.60
2023-02-15T15:54:53.638Z,36.00
2023-02-15T15:58:00.537Z,38.00
2023-02-15T16:01:12.564Z,40.67
2023-02-15T16:04:25.249Z,37.00
2023-02-15T16:07:28.768Z,39.25
2023-02-15T16:10:35.040Z,43.80
2023-02-15T16:13:38.353Z,32.50
2023-02-15T16:16:48.160Z,34.50
2023-02-15T16:19:53.141Z,35.50
2023-02-15T16:23:07.121Z,38.40
2023-02-15T16:26:17.419Z,45.00
2023-02-15T16:29:30.021Z,41.00
2023-02-15T16:32:37.591Z,42.40
2023-02-15T16:35:43.232Z,38.25
2023-02-15T16:39:09.363Z,40.40
2023-02-15T16:42:14.026Z,43.00
2023-02-15T16:45:21.778Z,43.00
2023-02-15T16:48:29.581Z,44.80
2023-02-15T16:51:36.388Z,37.20
2023-02-15T16:54:43.264Z,43.00
2023-02-15T16:57:46.572Z,40.25
2023-02-15T17:00:50.170Z,41.75
2023-02-15T17:04:13.902Z,45.00
2023-02-15T17:07:20.073Z,43.60
2023-02-15T17:10:33.101Z,61.25
2023-02-15T17:13:36.862Z,57.20
2023-02-15T17:16:50.230Z,47.80
2023-02-15T17:19:57.228Z,44.25
2023-02-15T17:23:01.228Z,47.60
2023-02-15T17:26:16.471Z,45.00
2023-02-15T17:29:28.628Z,46.40
2023-02-15T17:32:34.555Z,47.40
2023-02-15T17:35:39.478Z,48.20
2023-02-15T17:39:03.346Z,47.40
2023-02-15T17:42:06.716Z,49.60
2023-02-15T17:45:12.685Z,45.20
2023-02-15T17:48:22.896Z,46.20
2023-02-15T17:51:27.586Z,48.00
2023-02-15T17:54:56.716Z,51.00
2023-02-15T17:58:00.297Z,47.40
2023-02-15T18:01:30.745Z,50.00
2023-02-15T18:04:54.266Z,50.80
2023-02-15T18:08:17.090Z,51.40
2023-02-15T18:11:36.281Z,54.20
2023-02-15T18:14:39.668Z,55.00
2023-02-15T18:17:45.850Z,54.40
2023-02-15T18:20:49.430Z,57.00
2023-02-15T18:23:54.158Z,57.20
2023-02-15T18:26:57.413Z,58.00
2023-02-15T18:30:00.742Z,58.40
2023-02-15T18:33:04.599Z,57.00
2023-02-15T18:36:10.223Z,61.80
2023-02-15T18:39:27.156Z,58.00
2023-02-15T18:42:34.466Z,56.25
2023-02-15T18:45:39.113Z,56.00
2023-02-15T18:48:42.830Z,57.40
2023-02-15T18:51:46.464Z,62.00
2023-02-15T18:54:54.299Z,55.25
2023-02-15T18:57:58.405Z,59.20
2023-02-15T19:01:02.205Z,56.60
2023-02-15T19:04:05.706Z,55.00
2023-02-15T19:07:17.856Z,57.80
2023-02-15T19:10:25.844Z,57.25
2023-02-15T19:13:29.512Z,60.00
2023-02-15T19:16:35.580Z,55.75
2023-02-15T19:19:39.196Z,57.67
2023-02-15T19:22:42.573Z,58.60
2023-02-15T19:25:48.104Z,59.50
2023-02-15T19:28:51.845Z,59.40
2023-02-15T19:31:55.328Z,56.80
2023-02-15T19:34:59.468Z,49.80
2023-02-15T19:38:06.549Z,55.00
2023-02-15T19:41:20.225Z,52.00
2023-02-15T19:44:23.575Z,52.20
2023-02-15T19:47:28.866Z,50.20
2023-02-15T19:50:35.584Z,53.40
2023-02-15T19:53:38.946Z,54.00
2023-02-15T19:56:44.903Z,52.80
2023-02-15T19:59:48.820Z,54.60
2023-02-15T20:02:52.391Z,52.20
2023-02-15T20:05:55.822Z,54.50
2023-02-15T20:08:59.264Z,53.00
2023-02-15T20:12:04.338Z,57.60
2023-02-15T20:15:19.136Z,58.00
2023-02-15T20:18:22.872Z,56.00
2023-02-15T20:21:26.593Z,56.40
2023-02-15T20:24:31.063Z,57.40
2023-02-15T20:27:37.415Z,53.25
2023-02-15T20:30:40.757Z,60.75
2023-02-15T20:33:44.092Z,60.40
2023-02-15T20:36:48.051Z,58.00
2023-02-15T20:39:52.099Z,56.40
2023-02-15T20:42:57.426Z,60.80
2023-02-15T20:46:01.255Z,57.40
2023-02-15T20:49:04.754Z,59.20
2023-02-15T20:52:19.110Z,62.25
2023-02-15T20:55:29.187Z,65.00
2023-02-15T20:58:33.884Z,66.00
2023-02-15T21:01:37.255Z,66.00
2023-02-15T21:04:40.574Z,63.25
2023-02-15T21:07:44.148Z,63.20
2023-02-15T21:10:48.987Z,64.50
2023-02-15T21:13:53.701Z,65.50
2023-02-15T21:16:57.014Z,67.60
2023-02-15T21:20:00.288Z,69.40
2023-02-15T21:23:06.102Z,70.00
2023-02-15T21:26:19.474Z,67.40
2023-02-15T21:29:27.166Z,71.60
2023-02-15T21:32:30.590Z,69.00
2023-02-15T21:35:34.280Z,68.75
2023-02-15T21:38:38.278Z,71.20
2023-02-15T21:41:59.818Z,71.80
2023-02-15T21:45:31.830Z,75.00
2023-02-15T21:48:35.053Z,74.00
2023-02-15T21:51:55.702Z,72.40
2023-02-15T21:54:59.318Z,71.40
2023-02-15T21:58:02.733Z,71.50
2023-02-15T22:01:08.320Z,70.20
2023-02-15T22:04:15.351Z,70.00
2023-02-15T22:07:19.488Z,72.75
2023-02-15T22:10:23.000Z,70.00
2023-02-15T22:13:29.670Z,73.00
2023-02-15T22:16:34.312Z,72.40
2023-02-15T22:19:37.615Z,69.60
2023-02-15T22:22:40.879Z,73.60
2023-02-15T22:25:48.532Z,73.00
2023-02-15T22:28:52.418Z,70.80
2023-02-15T22:31:57.076Z,71.00
2023-02-15T22:35:00.399Z,75.00
2023-02-15T22:38:03.882Z,72.60
2023-02-15T22:41:07.248Z,73.40
2023-02-15T22:44:13.305Z,75.50
2023-02-15T22:47:22.143Z,75.40
2023-02-15T22:50:28.874Z,78.40
2023-02-15T22:53:32.117Z,75.50
2023-02-15T22:56:38.885Z,79.25
2023-02-15T22:59:42.400Z,77.00
2023-02-15T23:02:47.271Z,79.00
2023-02-15T23:05:50.896Z,78.20
2023-02-15T23:08:54.291Z,79.00
2023-02-15T23:11:58.806Z,76.40
2023-02-15T23:15:02.204Z,77.00
2023-02-15T23:18:17.759Z,77.00
2023-02-15T23:21:23.388Z,75.75
2023-02-15T23:24:29.405Z,77.25
2023-02-15T23:27:50.324Z,79.50
2023-02-15T23:30:54.122Z,86.20
2023-02-15T23:34:00.515Z,78.00
2023-02-15T23:37:03.977Z,78.20
2023-02-15T23:40:43.061Z,78.00
2023-02-15T23:43:49.085Z,78.40
2023-02-15T23:46:52.623Z,78.00
2023-02-15T23:49:57.396Z,80.40
2023-02-15T23:53:01.409Z,80.00
2023-02-15T23:56:04.992Z,75.50
2023-02-15T23:59:08.705Z,77.75
